createdAt,value
2023-01-07T00:01:53.399Z,8.75
2023-01-07T00:04:21.444Z,10.52
2023-01-07T00:06:49.724Z,10.13
2023-01-07T00:09:17.078Z,10.18
2023-01-07T00:11:45.658Z,9.55
2023-01-07T00:14:14.792Z,10.45
2023-01-07T00:16:42.840Z,9.60
2023-01-07T00:19:15.977Z,10.43
2023-01-07T00:21:43.740Z,9.75
2023-01-07T00:24:12.371Z,9.35
2023-01-07T00:26:40.625Z,9.50
2023-01-07T00:29:08.813Z,8.23
2023-01-07T00:31:40.381Z,10.35
2023-01-07T00:34:09.514Z,9.45
2023-01-07T00:36:43.992Z,9.30
2023-01-07T00:39:21.020Z,9.43
2023-01-07T00:42:07.971Z,9.20
2023-01-07T00:44:37.681Z,9.48
2023-01-07T00:47:05.169Z,8.30
2023-01-07T00:49:32.379Z,8.10
2023-01-07T00:51:59.593Z,7.68
2023-01-07T00:54:26.796Z,7.15
2023-01-07T00:56:54.543Z,7.70
2023-01-07T00:59:21.830Z,7.95
2023-01-07T01:01:49.395Z,8.13
2023-01-07T01:04:36.757Z,8.98
2023-01-07T01:07:04.579Z,8.20
2023-01-07T01:09:31.762Z,9.57
2023-01-07T01:11:58.948Z,7.40
2023-01-07T01:14:28.354Z,8.60
2023-01-07T01:16:55.596Z,8.07
2023-01-07T01:19:22.823Z,7.00
2023-01-07T01:21:50.151Z,7.75
2023-01-07T01:24:17.519Z,7.13
2023-01-07T01:26:44.747Z,7.93
2023-01-07T01:29:12.021Z,7.93
2023-01-07T01:31:39.523Z,8.27
2023-01-07T01:34:06.837Z,8.80
2023-01-07T01:36:35.020Z,7.88
2023-01-07T01:39:02.867Z,7.25
2023-01-07T01:41:33.365Z,7.90
2023-01-07T01:44:01.622Z,7.40
2023-01-07T01:46:41.672Z,7.57
2023-01-07T01:49:30.725Z,7.32
2023-01-07T01:52:15.105Z,8.60
2023-01-07T01:54:52.980Z,7.85
2023-01-07T01:57:22.441Z,7.95
2023-01-07T01:59:53.289Z,7.38
2023-01-07T02:02:32.227Z,7.90
2023-01-07T02:05:01.072Z,5.97
2023-01-07T02:07:29.034Z,5.97
2023-01-07T02:10:20.566Z,7.82
2023-01-07T02:13:48.019Z,6.28
2023-01-07T02:16:41.426Z,8.02
2023-01-07T02:19:55.243Z,7.57
2023-01-07T02:23:35.625Z,7.15
2023-01-07T02:29:43.806Z,7.38
2023-01-07T02:32:35.673Z,6.43
2023-01-07T02:35:52.115Z,6.65
2023-01-07T02:38:46.366Z,6.07
2023-01-07T02:42:08.922Z,6.88
2023-01-07T02:44:54.290Z,8.20
2023-01-07T02:47:41.908Z,6.03
2023-01-07T02:50:10.296Z,6.95
2023-01-07T02:52:38.077Z,6.10
2023-01-07T02:55:22.657Z,6.70
2023-01-07T02:58:56.759Z,7.72
2023-01-07T03:02:14.052Z,5.85
2023-01-07T03:05:12.303Z,6.57
2023-01-07T03:08:02.340Z,5.18
2023-01-07T03:10:59.561Z,5.80
2023-01-07T03:14:06.990Z,6.18
2023-01-07T03:16:42.172Z,5.65
2023-01-07T03:19:32.594Z,5.43
2023-01-07T03:22:04.510Z,6.40
2023-01-07T03:24:33.689Z,6.05
2023-01-07T03:27:06.174Z,5.57
2023-01-07T03:29:35.772Z,6.80
2023-01-07T03:32:26.158Z,5.53
2023-01-07T03:34:54.822Z,5.97
2023-01-07T03:37:26.829Z,5.65
2023-01-07T03:39:54.871Z,6.00
2023-01-07T03:42:40.686Z,5.05
2023-01-07T03:45:26.615Z,5.50
2023-01-07T03:47:57.851Z,5.32
2023-01-07T03:50:29.992Z,5.38
2023-01-07T03:52:57.266Z,5.88
2023-01-07T03:55:25.179Z,5.20
2023-01-07T03:57:57.137Z,5.22
2023-01-07T04:00:26.208Z,5.03
2023-01-07T04:03:00.111Z,6.05
2023-01-07T04:05:31.505Z,4.57
2023-01-07T04:07:59.289Z,5.50
2023-01-07T04:10:31.564Z,5.45
2023-01-07T04:13:18.878Z,4.85
2023-01-07T04:16:08.747Z,4.00
2023-01-07T04:18:36.271Z,4.45
2023-01-07T04:21:04.035Z,4.28
2023-01-07T04:23:31.662Z,4.40
2023-01-07T04:25:59.433Z,3.72
2023-01-07T04:28:27.418Z,4.30
2023-01-07T04:30:55.099Z,4.07
2023-01-07T04:33:22.979Z,3.70
2023-01-07T04:35:50.542Z,3.97
2023-01-07T04:38:18.847Z,5.03
2023-01-07T04:40:46.176Z,4.45
2023-01-07T04:43:13.746Z,5.43
2023-01-07T04:45:41.180Z,4.07
2023-01-07T04:48:08.906Z,4.57
2023-01-07T04:50:36.175Z,3.85
2023-01-07T04:53:03.940Z,4.13
2023-01-07T04:55:31.730Z,4.20
2023-01-07T04:57:59.006Z,4.22
2023-01-07T05:00:28.633Z,4.07
2023-01-07T05:02:56.055Z,3.95
2023-01-07T05:05:23.327Z,3.70
2023-01-07T05:07:51.768Z,4.60
2023-01-07T05:10:20.366Z,3.80
2023-01-07T05:12:47.990Z,3.28
2023-01-07T05:15:17.934Z,3.30
2023-01-07T05:17:45.334Z,3.80
2023-01-07T05:20:14.229Z,3.80
2023-01-07T05:22:41.977Z,4.13
2023-01-07T05:25:10.216Z,3.60
2023-01-07T05:27:37.496Z,3.58
2023-01-07T05:30:07.586Z,4.22
2023-01-07T05:32:35.714Z,3.90
2023-01-07T05:35:03.026Z,4.57
2023-01-07T05:37:30.622Z,4.10
2023-01-07T05:39:58.065Z,3.92
2023-01-07T05:42:25.362Z,4.80
2023-01-07T05:44:52.731Z,3.70
2023-01-07T05:47:19.978Z,3.45
2023-01-07T05:49:47.237Z,4.20
2023-01-07T05:52:14.495Z,3.30
2023-01-07T05:54:41.887Z,3.28
2023-01-07T05:57:09.113Z,4.05
2023-01-07T05:59:36.400Z,3.05
2023-01-07T06:02:04.368Z,3.25
2023-01-07T06:04:31.770Z,3.22
2023-01-07T06:06:58.937Z,2.85
2023-01-07T06:09:26.281Z,3.65
2023-01-07T06:11:53.431Z,3.20
2023-01-07T06:14:20.847Z,3.28
2023-01-07T06:16:48.033Z,2.85
2023-01-07T06:19:15.318Z,2.92
2023-01-07T06:21:42.585Z,3.08
2023-01-07T06:24:11.320Z,2.03
2023-01-07T06:26:38.526Z,2.50
2023-01-07T06:29:05.939Z,2.50
2023-01-07T06:31:33.579Z,2.83
2023-01-07T06:34:00.832Z,3.13
2023-01-07T06:36:28.316Z,2.33
2023-01-07T06:38:55.580Z,2.80
2023-01-07T06:41:22.888Z,2.22
2023-01-07T06:43:50.109Z,2.50
2023-01-07T06:46:17.725Z,2.40
2023-01-07T06:48:44.976Z,2.33
2023-01-07T06:51:12.225Z,2.75
2023-01-07T06:53:39.429Z,2.75
2023-01-07T06:56:09.961Z,2.00
2023-01-07T06:58:39.731Z,2.45
2023-01-07T07:01:08.821Z,2.08
2023-01-07T07:03:36.131Z,2.30
2023-01-07T07:06:04.249Z,2.28
2023-01-07T07:08:31.611Z,2.40
2023-01-07T07:10:58.865Z,2.33
2023-01-07T07:13:26.116Z,2.70
2023-01-07T07:15:53.471Z,2.53
2023-01-07T07:18:21.472Z,2.20
2023-01-07T07:20:48.881Z,2.55
2023-01-07T07:23:16.211Z,2.20
2023-01-07T07:25:44.025Z,2.42
2023-01-07T07:28:11.445Z,2.42
2023-01-07T07:30:46.641Z,2.47
2023-01-07T07:33:19.123Z,2.08
2023-01-07T07:35:48.007Z,2.00
2023-01-07T07:38:17.735Z,2.33
2023-01-07T07:40:46.596Z,2.10
2023-01-07T07:43:15.198Z,2.15
2023-01-07T07:45:43.532Z,2.42
2023-01-07T07:48:14.675Z,2.20
2023-01-07T07:50:42.284Z,2.15
2023-01-07T07:53:11.444Z,2.40
2023-01-07T07:55:39.771Z,2.10
2023-01-07T07:58:07.477Z,1.90
2023-01-07T08:00:34.865Z,2.17
2023-01-07T08:03:02.666Z,2.03
2023-01-07T08:05:31.072Z,2.60
2023-01-07T08:07:58.630Z,2.10
2023-01-07T08:10:29.066Z,2.08
2023-01-07T08:12:56.354Z,2.08
2023-01-07T08:15:23.550Z,1.90
2023-01-07T08:18:10.063Z,2.10
2023-01-07T08:20:38.726Z,1.98
2023-01-07T08:23:08.020Z,1.77
2023-01-07T08:25:36.963Z,2.67
2023-01-07T08:28:05.268Z,2.00
2023-01-07T08:30:32.615Z,2.38
2023-01-07T08:33:00.690Z,1.80
2023-01-07T08:35:28.013Z,2.17
2023-01-07T08:38:07.642Z,2.00
2023-01-07T08:40:36.886Z,2.45
2023-01-07T08:43:07.774Z,2.53
2023-01-07T08:45:35.037Z,2.08
2023-01-07T08:48:02.430Z,1.77
2023-01-07T08:50:33.172Z,2.42
2023-01-07T08:53:01.052Z,1.88
2023-01-07T08:55:28.390Z,2.25
2023-01-07T08:57:58.617Z,2.20
2023-01-07T09:00:26.636Z,2.08
2023-01-07T09:02:53.927Z,1.88
2023-01-07T09:05:21.388Z,2.08
2023-01-07T09:07:53.494Z,1.90
2023-01-07T09:10:21.209Z,2.35
2023-01-07T09:12:56.553Z,2.35
2023-01-07T09:15:25.684Z,2.00
2023-01-07T09:17:56.110Z,2.08
2023-01-07T09:20:23.507Z,1.90
2023-01-07T09:22:50.721Z,1.70
2023-01-07T09:25:20.406Z,2.17
2023-01-07T09:27:47.664Z,1.98
2023-01-07T09:30:15.472Z,1.90
2023-01-07T09:32:44.666Z,1.80
2023-01-07T09:35:12.889Z,2.20
2023-01-07T09:37:40.134Z,2.28
2023-01-07T09:40:21.531Z,2.17
2023-01-07T09:43:59.980Z,2.05
2023-01-07T09:46:31.151Z,2.50
2023-01-07T09:49:04.338Z,2.47
2023-01-07T09:51:45.571Z,2.70
2023-01-07T09:54:34.748Z,1.80
2023-01-07T09:57:03.899Z,1.70
2023-01-07T09:59:32.283Z,1.80
2023-01-07T10:02:40.945Z,2.17
2023-01-07T10:08:29.901Z,1.90
2023-01-07T10:11:17.327Z,1.73
2023-01-07T10:13:59.505Z,2.00
2023-01-07T10:17:20.102Z,1.65
2023-01-07T10:20:35.563Z,1.58
2023-01-07T10:23:19.599Z,1.83
2023-01-07T10:25:58.196Z,1.70
2023-01-07T10:28:50.751Z,1.30
2023-01-07T10:31:28.456Z,1.67
2023-01-07T10:33:57.647Z,1.40
2023-01-07T10:37:12.818Z,1.73
2023-01-07T10:40:26.779Z,1.60
2023-01-07T10:43:39.838Z,2.08
2023-01-07T10:47:03.059Z,1.50
2023-01-07T10:50:22.363Z,1.90
2023-01-07T10:53:28.748Z,1.50
2023-01-07T10:55:58.409Z,1.70
2023-01-07T10:58:36.564Z,1.70
2023-01-07T11:01:05.676Z,2.28
2023-01-07T11:03:33.983Z,1.70
2023-01-07T11:06:13.420Z,1.90
2023-01-07T11:08:43.383Z,2.08
2023-01-07T11:11:20.857Z,1.50
2023-01-07T11:14:10.268Z,1.58
2023-01-07T11:17:44.499Z,1.77
2023-01-07T11:20:12.511Z,1.60
2023-01-07T11:22:40.186Z,1.35
2023-01-07T11:25:29.567Z,1.50
2023-01-07T11:28:03.475Z,1.73
2023-01-07T11:30:33.627Z,1.65
2023-01-07T11:33:06.919Z,1.38
2023-01-07T11:35:35.039Z,1.80
2023-01-07T11:38:02.277Z,2.00
2023-01-07T11:40:32.922Z,1.80
2023-01-07T11:43:30.746Z,1.48
2023-01-07T11:46:21.188Z,2.05
2023-01-07T11:48:57.800Z,1.73
2023-01-07T11:51:25.527Z,1.40
2023-01-07T11:53:55.333Z,1.52
2023-01-07T11:56:34.064Z,1.70
2023-01-07T11:59:14.311Z,1.58
2023-01-07T12:01:49.926Z,1.85
2023-01-07T12:04:33.141Z,2.28
2023-01-07T12:07:13.147Z,2.15
2023-01-07T12:09:46.026Z,2.00
2023-01-07T12:12:34.758Z,2.15
2023-01-07T12:15:18.205Z,1.95
2023-01-07T12:17:57.848Z,1.95
2023-01-07T12:20:45.831Z,1.80
2023-01-07T12:23:37.794Z,2.40
2023-01-07T12:26:36.675Z,1.98
2023-01-07T12:29:59.512Z,2.22
2023-01-07T12:33:08.589Z,2.20
2023-01-07T12:35:45.719Z,1.80
2023-01-07T12:38:17.146Z,2.25
2023-01-07T12:41:02.834Z,1.98
2023-01-07T12:43:52.570Z,2.17
2023-01-07T12:46:22.927Z,2.08
2023-01-07T12:49:10.470Z,2.10
2023-01-07T12:55:04.392Z,2.40
2023-01-07T12:57:40.457Z,1.85
2023-01-07T13:00:16.932Z,2.55
2023-01-07T13:03:30.454Z,2.55
2023-01-07T13:06:18.654Z,1.90
2023-01-07T13:09:16.176Z,2.00
2023-01-07T13:12:40.980Z,2.33
2023-01-07T13:15:30.461Z,2.22
2023-01-07T13:18:16.141Z,2.85
2023-01-07T13:21:13.012Z,2.50
2023-01-07T13:24:55.613Z,2.60
2023-01-07T13:30:52.362Z,2.55
2023-01-07T13:33:42.497Z,2.70
2023-01-07T13:36:48.904Z,2.58
2023-01-07T13:40:18.059Z,3.22
2023-01-07T13:43:04.196Z,3.30
2023-01-07T13:45:37.399Z,3.05
2023-01-07T13:48:21.816Z,2.90
2023-01-07T13:51:01.796Z,2.88
2023-01-07T13:53:46.872Z,4.07
2023-01-07T13:56:39.096Z,3.25
2023-01-07T13:59:46.694Z,2.50
2023-01-07T14:02:22.955Z,2.42
2023-01-07T14:05:10.517Z,2.35
2023-01-07T14:13:59.268Z,2.85
2023-01-07T14:16:41.166Z,3.28
2023-01-07T14:20:09.805Z,2.80
2023-01-07T14:23:40.796Z,2.97
2023-01-07T14:26:48.679Z,3.25
2023-01-07T14:29:54.282Z,3.42
2023-01-07T14:32:37.422Z,3.20
2023-01-07T14:35:15.990Z,3.03
2023-01-07T14:37:49.397Z,2.85
2023-01-07T14:40:40.231Z,3.25
2023-01-07T14:43:45.501Z,3.20
2023-01-07T14:46:25.008Z,3.65
2023-01-07T14:49:04.539Z,3.38
2023-01-07T14:52:05.311Z,2.88
2023-01-07T14:55:27.646Z,3.63
2023-01-07T14:58:51.093Z,3.47
2023-01-07T15:02:51.141Z,4.20
2023-01-07T15:05:18.749Z,3.10
2023-01-07T15:08:19.794Z,3.97
2023-01-07T15:11:12.696Z,2.80
2023-01-07T15:14:17.086Z,3.08
2023-01-07T15:16:51.956Z,2.40
2023-01-07T15:19:21.767Z,3.33
2023-01-07T15:22:13.348Z,3.03
2023-01-07T15:25:03.967Z,2.90
2023-01-07T15:28:22.497Z,3.30
2023-01-07T15:31:29.013Z,2.72
2023-01-07T15:34:15.234Z,3.35
2023-01-07T15:36:48.732Z,3.33
2023-01-07T15:39:32.830Z,2.70
2023-01-07T15:42:02.026Z,3.25
2023-01-07T15:44:42.068Z,3.15
2023-01-07T15:47:42.460Z,3.00
2023-01-07T15:50:34.913Z,2.55
2023-01-07T15:53:12.488Z,3.30
2023-01-07T15:55:48.929Z,3.28
2023-01-07T15:58:45.864Z,3.40
2023-01-07T16:01:24.584Z,3.60
2023-01-07T16:03:57.430Z,2.83
2023-01-07T16:06:39.384Z,2.63
2023-01-07T16:09:21.901Z,2.60
2023-01-07T16:11:49.780Z,2.90
2023-01-07T16:14:22.681Z,3.58
2023-01-07T16:17:15.039Z,3.45
2023-01-07T16:19:42.976Z,2.33
2023-01-07T16:22:19.565Z,2.85
2023-01-07T16:24:53.572Z,3.60
2023-01-07T16:27:30.775Z,3.13
2023-01-07T16:30:01.421Z,2.90
2023-01-07T16:32:28.952Z,3.10
2023-01-07T16:35:13.602Z,2.88
2023-01-07T16:37:41.603Z,2.50
2023-01-07T16:40:41.040Z,3.08
2023-01-07T16:43:38.533Z,3.05
2023-01-07T16:46:34.355Z,3.70
2023-01-07T16:49:30.243Z,3.58
2023-01-07T16:52:03.447Z,2.97
2023-01-07T16:54:37.217Z,3.00
2023-01-07T16:57:11.667Z,3.90
2023-01-07T16:59:53.702Z,3.72
2023-01-07T17:02:48.918Z,4.45
2023-01-07T17:05:30.520Z,4.10
2023-01-07T17:08:16.459Z,3.80
2023-01-07T17:10:57.730Z,3.40
2023-01-07T17:13:24.795Z,3.58
2023-01-07T17:16:15.407Z,3.80
2023-01-07T17:18:42.792Z,4.25
2023-01-07T17:21:38.744Z,4.72
2023-01-07T17:24:22.546Z,3.85
2023-01-07T17:26:51.404Z,3.95
2023-01-07T17:29:19.847Z,4.25
2023-01-07T17:31:47.605Z,3.45
2023-01-07T17:34:16.044Z,3.15
2023-01-07T17:36:43.206Z,4.00
2023-01-07T17:39:10.510Z,3.33
2023-01-07T17:41:57.438Z,4.75
2023-01-07T17:44:24.717Z,3.80
2023-01-07T17:46:52.408Z,4.20
2023-01-07T17:49:20.473Z,4.10
2023-01-07T17:51:49.436Z,3.70
2023-01-07T17:54:25.500Z,4.07
2023-01-07T17:56:52.895Z,3.55
2023-01-07T17:59:23.438Z,3.67
2023-01-07T18:01:54.996Z,3.63
2023-01-07T18:04:22.591Z,3.65
2023-01-07T18:06:50.078Z,4.55
2023-01-07T18:09:17.364Z,5.07
2023-01-07T18:12:04.854Z,4.47
2023-01-07T18:14:32.711Z,3.67
2023-01-07T18:17:00.154Z,4.38
2023-01-07T18:19:27.561Z,4.53
2023-01-07T18:21:55.955Z,5.22
2023-01-07T18:24:23.199Z,4.95
2023-01-07T18:26:55.122Z,5.30
2023-01-07T18:29:23.782Z,5.22
2023-01-07T18:31:51.094Z,5.28
2023-01-07T18:34:18.556Z,4.80
2023-01-07T18:36:45.716Z,4.00
2023-01-07T18:39:20.576Z,4.32
2023-01-07T18:41:51.355Z,4.47
2023-01-07T18:44:21.219Z,4.40
2023-01-07T18:46:48.671Z,4.20
2023-01-07T18:49:16.434Z,3.63
2023-01-07T18:51:47.284Z,4.28
2023-01-07T18:54:15.553Z,4.07
2023-01-07T18:56:45.758Z,3.92
2023-01-07T18:59:14.279Z,4.05
2023-01-07T19:01:41.759Z,3.97
2023-01-07T19:04:09.130Z,3.58
2023-01-07T19:06:37.028Z,3.55
2023-01-07T19:09:04.431Z,3.50
2023-01-07T19:11:31.653Z,4.45
2023-01-07T19:13:58.838Z,3.90
2023-01-07T19:16:26.105Z,3.60
2023-01-07T19:18:53.430Z,3.15
2023-01-07T19:21:21.439Z,3.75
2023-01-07T19:23:48.986Z,3.75
2023-01-07T19:26:16.277Z,3.20
2023-01-07T19:28:43.665Z,3.63
2023-01-07T19:31:11.657Z,3.55
2023-01-07T19:33:40.121Z,3.05
2023-01-07T19:36:15.370Z,3.20
2023-01-07T19:38:48.514Z,3.58
2023-01-07T19:41:20.906Z,3.83
2023-01-07T19:43:52.045Z,3.95
2023-01-07T19:46:20.217Z,4.13
2023-01-07T19:48:48.063Z,3.67
2023-01-07T19:51:17.712Z,3.20
2023-01-07T19:53:47.851Z,3.28
2023-01-07T19:56:15.348Z,3.45
2023-01-07T19:58:42.585Z,3.78
2023-01-07T20:01:17.911Z,3.55
2023-01-07T20:03:45.886Z,2.83
2023-01-07T20:06:17.665Z,3.63
2023-01-07T20:08:45.953Z,2.85
2023-01-07T20:11:14.805Z,2.92
2023-01-07T20:13:46.796Z,2.53
2023-01-07T20:16:24.646Z,2.92
2023-01-07T20:18:55.485Z,3.92
2023-01-07T20:21:25.925Z,3.13
2023-01-07T20:23:53.980Z,2.60
2023-01-07T20:26:26.411Z,3.47
2023-01-07T20:28:54.517Z,2.60
2023-01-07T20:31:24.786Z,2.42
2023-01-07T20:33:55.421Z,2.20
2023-01-07T20:36:28.316Z,2.90
2023-01-07T20:38:56.654Z,3.22
2023-01-07T20:41:28.015Z,2.83
2023-01-07T20:44:02.311Z,2.92
2023-01-07T20:46:31.774Z,2.47
2023-01-07T20:48:59.567Z,2.75
2023-01-07T20:51:27.442Z,2.42
2023-01-07T20:53:55.095Z,2.38
2023-01-07T20:56:26.211Z,2.35
2023-01-07T20:58:53.663Z,2.95
2023-01-07T21:01:22.049Z,2.47
2023-01-07T21:03:50.126Z,3.80
2023-01-07T21:06:20.745Z,2.17
2023-01-07T21:08:50.611Z,2.60
2023-01-07T21:11:22.112Z,1.83
2023-01-07T21:13:52.595Z,3.15
2023-01-07T21:16:19.955Z,2.20
2023-01-07T21:18:47.726Z,2.60
2023-01-07T21:21:24.543Z,2.88
2023-01-07T21:23:54.092Z,2.50
2023-01-07T21:26:22.937Z,2.60
2023-01-07T21:28:56.068Z,2.80
2023-01-07T21:31:24.201Z,2.90
2023-01-07T21:33:56.489Z,2.67
2023-01-07T21:36:26.320Z,2.40
2023-01-07T21:39:13.982Z,3.20
2023-01-07T21:44:48.298Z,2.97
2023-01-07T21:47:35.538Z,2.80
2023-01-07T21:50:02.891Z,3.33
2023-01-07T21:52:30.181Z,2.88
2023-01-07T21:54:57.384Z,2.75
2023-01-07T21:57:25.532Z,3.30
2023-01-07T21:59:52.748Z,3.45
2023-01-07T22:02:20.047Z,3.08
2023-01-07T22:04:48.616Z,3.88
2023-01-07T22:07:19.315Z,3.15
2023-01-07T22:09:47.287Z,3.15
2023-01-07T22:12:15.592Z,3.03
2023-01-07T22:14:42.860Z,3.65
2023-01-07T22:17:11.408Z,3.20
2023-01-07T22:19:38.595Z,2.92
2023-01-07T22:22:07.364Z,3.45
2023-01-07T22:24:34.901Z,3.88
2023-01-07T22:27:02.416Z,3.53
2023-01-07T22:29:32.157Z,4.35
2023-01-07T22:31:59.605Z,3.13
2023-01-07T22:34:26.833Z,3.30
2023-01-07T22:37:18.943Z,4.13
2023-01-07T22:39:56.989Z,3.58
2023-01-07T22:42:51.803Z,3.78
2023-01-07T22:45:45.085Z,3.53
2023-01-07T22:48:19.740Z,2.97
2023-01-07T22:50:46.919Z,4.13
2023-01-07T22:53:14.507Z,3.00
2023-01-07T22:55:41.868Z,2.85
2023-01-07T22:58:09.082Z,3.30
2023-01-07T23:00:51.333Z,3.30
2023-01-07T23:03:23.116Z,3.65
2023-01-07T23:05:52.553Z,3.38
2023-01-07T23:08:19.894Z,3.53
2023-01-07T23:10:48.237Z,3.60
2023-01-07T23:13:15.880Z,3.40
2023-01-07T23:15:43.079Z,4.05
2023-01-07T23:18:11.398Z,3.15
2023-01-07T23:20:41.765Z,3.30
2023-01-07T23:23:11.477Z,3.00
2023-01-07T23:25:49.548Z,4.70
2023-01-07T23:28:19.284Z,4.63
2023-01-07T23:30:48.214Z,3.63
2023-01-07T23:33:15.447Z,3.42
2023-01-07T23:35:42.637Z,3.75
2023-01-07T23:38:09.856Z,4.13
2023-01-07T23:40:37.156Z,3.65
2023-01-07T23:43:04.388Z,4.40
2023-01-07T23:45:31.667Z,3.78
2023-01-07T23:47:59.004Z,4.07
2023-01-07T23:50:26.222Z,3.70
2023-01-07T23:52:53.419Z,4.07
2023-01-07T23:55:20.660Z,4.07
2023-01-07T23:57:47.916Z,3.72
